sensor_id;sensor_type;location;lat;lon;timestamp;P1;durP1;ratioP1;P2;durP2;ratioP2
1360;SDS011;674;45.552;-122.600;2023-05-14T00:01:07;4.37;;;2.30;;
1360;SDS011;674;45.552;-122.600;2023-05-14T00:03:35;4.53;;;3.17;;
1360;SDS011;674;45.552;-122.600;2023-05-14T00:06:06;6.93;;;2.97;;
1360;SDS011;674;45.552;-122.600;2023-05-14T00:08:35;8.57;;;2.33;;
1360;SDS011;674;45.552;-122.600;2023-05-14T00:11:04;3.13;;;2.60;;
1360;SDS011;674;45.552;-122.600;2023-05-14T00:13:35;6.40;;;2.80;;
1360;SDS011;674;45.552;-122.600;2023-05-14T00:16:03;7.70;;;2.77;;
1360;SDS011;674;45.552;-122.600;2023-05-14T00:18:32;5.10;;;2.73;;
1360;SDS011;674;45.552;-122.600;2023-05-14T00:21:00;3.10;;;2.27;;
1360;SDS011;674;45.552;-122.600;2023-05-14T00:23:29;4.27;;;2.23;;
1360;SDS011;674;45.552;-122.600;2023-05-14T00:25:57;6.50;;;2.83;;
1360;SDS011;674;45.552;-122.600;2023-05-14T00:28:26;5.30;;;2.57;;
1360;SDS011;674;45.552;-122.600;2023-05-14T00:30:54;4.30;;;2.63;;
1360;SDS011;674;45.552;-122.600;2023-05-14T00:33:23;6.00;;;2.30;;
1360;SDS011;674;45.552;-122.600;2023-05-14T00:35:52;6.43;;;2.50;;
1360;SDS011;674;45.552;-122.600;2023-05-14T00:38:20;4.87;;;2.53;;
1360;SDS011;674;45.552;-122.600;2023-05-14T00:40:50;5.03;;;2.70;;
1360;SDS011;674;45.552;-122.600;2023-05-14T00:43:19;4.43;;;2.57;;
1360;SDS011;674;45.552;-122.600;2023-05-14T00:45:49;8.23;;;3.10;;
1360;SDS011;674;45.552;-122.600;2023-05-14T00:48:19;6.33;;;2.90;;
1360;SDS011;674;45.552;-122.600;2023-05-14T00:50:48;4.40;;;2.63;;
1360;SDS011;674;45.552;-122.600;2023-05-14T00:53:18;6.97;;;2.77;;
1360;SDS011;674;45.552;-122.600;2023-05-14T00:55:47;3.30;;;2.53;;
1360;SDS011;674;45.552;-122.600;2023-05-14T00:58:16;4.87;;;2.70;;
1360;SDS011;674;45.552;-122.600;2023-05-14T01:00:45;5.30;;;2.33;;
1360;SDS011;674;45.552;-122.600;2023-05-14T01:03:14;5.97;;;2.37;;
1360;SDS011;674;45.552;-122.600;2023-05-14T01:11:27;3.53;;;2.00;;
1360;SDS011;674;45.552;-122.600;2023-05-14T01:14:23;4.97;;;2.90;;
1360;SDS011;674;45.552;-122.600;2023-05-14T01:17:18;4.87;;;2.90;;
1360;SDS011;674;45.552;-122.600;2023-05-14T01:19:49;5.27;;;2.60;;
1360;SDS011;674;45.552;-122.600;2023-05-14T01:22:18;4.17;;;2.37;;
1360;SDS011;674;45.552;-122.600;2023-05-14T01:24:46;6.47;;;2.40;;
1360;SDS011;674;45.552;-122.600;2023-05-14T01:29:45;3.87;;;2.27;;
1360;SDS011;674;45.552;-122.600;2023-05-14T01:32:23;4.30;;;2.30;;
1360;SDS011;674;45.552;-122.600;2023-05-14T01:34:54;7.00;;;2.93;;
1360;SDS011;674;45.552;-122.600;2023-05-14T01:37:25;5.00;;;2.43;;
1360;SDS011;674;45.552;-122.600;2023-05-14T01:39:57;3.77;;;2.17;;
1360;SDS011;674;45.552;-122.600;2023-05-14T01:42:26;4.63;;;2.43;;
1360;SDS011;674;45.552;-122.600;2023-05-14T01:44:55;6.50;;;2.60;;
1360;SDS011;674;45.552;-122.600;2023-05-14T01:47:23;10.03;;;2.37;;
1360;SDS011;674;45.552;-122.600;2023-05-14T01:49:52;11.93;;;2.70;;
1360;SDS011;674;45.552;-122.600;2023-05-14T01:52:20;8.50;;;2.73;;
1360;SDS011;674;45.552;-122.600;2023-05-14T01:54:49;5.67;;;2.70;;
1360;SDS011;674;45.552;-122.600;2023-05-14T01:57:17;4.50;;;2.47;;
1360;SDS011;674;45.552;-122.600;2023-05-14T01:59:46;6.17;;;2.60;;
1360;SDS011;674;45.552;-122.600;2023-05-14T02:02:14;5.53;;;2.20;;
1360;SDS011;674;45.552;-122.600;2023-05-14T02:04:43;3.80;;;2.13;;
1360;SDS011;674;45.552;-122.600;2023-05-14T02:07:11;10.10;;;2.37;;
1360;SDS011;674;45.552;-122.600;2023-05-14T02:09:39;4.63;;;2.10;;
1360;SDS011;674;45.552;-122.600;2023-05-14T02:12:08;4.43;;;2.23;;
1360;SDS011;674;45.552;-122.600;2023-05-14T02:14:37;3.93;;;2.00;;
1360;SDS011;674;45.552;-122.600;2023-05-14T02:17:06;3.67;;;1.90;;
1360;SDS011;674;45.552;-122.600;2023-05-14T02:19:35;4.63;;;2.23;;
1360;SDS011;674;45.552;-122.600;2023-05-14T02:22:03;5.30;;;2.07;;
1360;SDS011;674;45.552;-122.600;2023-05-14T02:24:32;3.70;;;2.20;;
1360;SDS011;674;45.552;-122.600;2023-05-14T02:27:00;7.23;;;1.90;;
1360;SDS011;674;45.552;-122.600;2023-05-14T02:29:28;4.63;;;2.53;;
1360;SDS011;674;45.552;-122.600;2023-05-14T02:31:57;5.13;;;3.20;;
1360;SDS011;674;45.552;-122.600;2023-05-14T02:34:25;5.33;;;3.67;;
1360;SDS011;674;45.552;-122.600;2023-05-14T02:36:53;7.83;;;3.27;;
1360;SDS011;674;45.552;-122.600;2023-05-14T02:39:22;4.70;;;2.40;;
1360;SDS011;674;45.552;-122.600;2023-05-14T02:41:50;7.13;;;2.50;;
1360;SDS011;674;45.552;-122.600;2023-05-14T02:44:19;6.50;;;2.83;;
1360;SDS011;674;45.552;-122.600;2023-05-14T02:46:47;4.30;;;2.23;;
1360;SDS011;674;45.552;-122.600;2023-05-14T02:49:16;6.30;;;3.00;;
1360;SDS011;674;45.552;-122.600;2023-05-14T02:51:44;8.17;;;2.80;;
1360;SDS011;674;45.552;-122.600;2023-05-14T02:54:12;5.30;;;2.27;;
1360;SDS011;674;45.552;-122.600;2023-05-14T02:56:42;5.33;;;3.23;;
1360;SDS011;674;45.552;-122.600;2023-05-14T02:59:11;8.43;;;3.70;;
1360;SDS011;674;45.552;-122.600;2023-05-14T03:01:39;9.63;;;4.50;;
1360;SDS011;674;45.552;-122.600;2023-05-14T03:04:09;7.03;;;4.60;;
1360;SDS011;674;45.552;-122.600;2023-05-14T03:06:37;7.60;;;4.80;;
1360;SDS011;674;45.552;-122.600;2023-05-14T03:09:05;8.90;;;5.70;;
1360;SDS011;674;45.552;-122.600;2023-05-14T03:11:34;9.50;;;5.10;;
1360;SDS011;674;45.552;-122.600;2023-05-14T03:14:02;6.30;;;5.27;;
1360;SDS011;674;45.552;-122.600;2023-05-14T03:16:31;6.20;;;5.10;;
1360;SDS011;674;45.552;-122.600;2023-05-14T03:18:59;9.20;;;5.60;;
1360;SDS011;674;45.552;-122.600;2023-05-14T03:21:28;11.27;;;6.40;;
1360;SDS011;674;45.552;-122.600;2023-05-14T03:23:57;8.23;;;6.13;;
1360;SDS011;674;45.552;-122.600;2023-05-14T03:26:25;8.00;;;5.87;;
1360;SDS011;674;45.552;-122.600;2023-05-14T03:28:54;7.93;;;5.80;;
1360;SDS011;674;45.552;-122.600;2023-05-14T03:31:22;6.53;;;5.10;;
1360;SDS011;674;45.552;-122.600;2023-05-14T03:33:51;5.67;;;4.70;;
1360;SDS011;674;45.552;-122.600;2023-05-14T03:36:19;7.13;;;4.87;;
1360;SDS011;674;45.552;-122.600;2023-05-14T03:38:48;7.03;;;4.37;;
1360;SDS011;674;45.552;-122.600;2023-05-14T03:41:16;5.20;;;3.70;;
1360;SDS011;674;45.552;-122.600;2023-05-14T03:43:46;7.27;;;4.40;;
1360;SDS011;674;45.552;-122.600;2023-05-14T03:46:14;5.10;;;3.30;;
1360;SDS011;674;45.552;-122.600;2023-05-14T03:48:43;7.37;;;3.43;;
1360;SDS011;674;45.552;-122.600;2023-05-14T03:51:11;4.30;;;3.50;;
1360;SDS011;674;45.552;-122.600;2023-05-14T03:53:39;5.83;;;3.47;;
1360;SDS011;674;45.552;-122.600;2023-05-14T03:56:08;3.83;;;3.17;;
1360;SDS011;674;45.552;-122.600;2023-05-14T03:58:36;6.63;;;3.27;;
1360;SDS011;674;45.552;-122.600;2023-05-14T04:01:04;11.87;;;3.70;;
1360;SDS011;674;45.552;-122.600;2023-05-14T04:03:33;4.83;;;3.20;;
1360;SDS011;674;45.552;-122.600;2023-05-14T04:06:01;5.93;;;3.50;;
1360;SDS011;674;45.552;-122.600;2023-05-14T04:08:30;6.93;;;3.47;;
1360;SDS011;674;45.552;-122.600;2023-05-14T04:10:58;5.50;;;3.60;;
1360;SDS011;674;45.552;-122.600;2023-05-14T04:13:27;5.03;;;3.57;;
1360;SDS011;674;45.552;-122.600;2023-05-14T04:15:55;5.90;;;3.60;;
1360;SDS011;674;45.552;-122.600;2023-05-14T04:18:24;4.80;;;3.47;;
1360;SDS011;674;45.552;-122.600;2023-05-14T04:20:52;5.63;;;3.50;;
1360;SDS011;674;45.552;-122.600;2023-05-14T04:23:20;7.30;;;3.90;;
1360;SDS011;674;45.552;-122.600;2023-05-14T04:25:49;4.60;;;3.63;;
1360;SDS011;674;45.552;-122.600;2023-05-14T04:28:17;10.37;;;4.23;;
1360;SDS011;674;45.552;-122.600;2023-05-14T04:30:46;8.30;;;3.90;;
1360;SDS011;674;45.552;-122.600;2023-05-14T04:33:15;7.67;;;3.80;;
1360;SDS011;674;45.552;-122.600;2023-05-14T04:35:43;6.53;;;3.77;;
1360;SDS011;674;45.552;-122.600;2023-05-14T04:38:12;5.77;;;3.90;;
1360;SDS011;674;45.552;-122.600;2023-05-14T04:40:40;12.27;;;4.17;;
1360;SDS011;674;45.552;-122.600;2023-05-14T04:43:09;5.80;;;3.67;;
1360;SDS011;674;45.552;-122.600;2023-05-14T04:45:37;4.90;;;3.37;;
1360;SDS011;674;45.552;-122.600;2023-05-14T04:48:07;7.90;;;3.83;;
1360;SDS011;674;45.552;-122.600;2023-05-14T04:50:35;5.23;;;3.17;;
1360;SDS011;674;45.552;-122.600;2023-05-14T04:53:04;8.03;;;3.77;;
1360;SDS011;674;45.552;-122.600;2023-05-14T04:55:32;6.30;;;3.10;;
1360;SDS011;674;45.552;-122.600;2023-05-14T04:58:00;7.40;;;4.23;;
1360;SDS011;674;45.552;-122.600;2023-05-14T05:00:29;5.60;;;3.80;;
1360;SDS011;674;45.552;-122.600;2023-05-14T05:02:58;5.57;;;3.70;;
1360;SDS011;674;45.552;-122.600;2023-05-14T05:05:26;14.10;;;4.30;;
1360;SDS011;674;45.552;-122.600;2023-05-14T05:07:55;5.23;;;4.03;;
1360;SDS011;674;45.552;-122.600;2023-05-14T05:10:23;6.00;;;4.40;;
1360;SDS011;674;45.552;-122.600;2023-05-14T05:12:52;7.53;;;4.00;;
1360;SDS011;674;45.552;-122.600;2023-05-14T05:15:20;5.37;;;3.00;;
1360;SDS011;674;45.552;-122.600;2023-05-14T05:17:51;8.33;;;3.60;;
1360;SDS011;674;45.552;-122.600;2023-05-14T05:20:20;8.77;;;4.07;;
1360;SDS011;674;45.552;-122.600;2023-05-14T05:22:49;7.43;;;4.07;;
1360;SDS011;674;45.552;-122.600;2023-05-14T05:25:18;5.77;;;3.60;;
1360;SDS011;674;45.552;-122.600;2023-05-14T05:27:46;6.73;;;3.67;;
1360;SDS011;674;45.552;-122.600;2023-05-14T05:30:14;4.63;;;3.50;;
1360;SDS011;674;45.552;-122.600;2023-05-14T05:32:43;6.03;;;3.50;;
1360;SDS011;674;45.552;-122.600;2023-05-14T05:35:11;8.40;;;4.03;;
1360;SDS011;674;45.552;-122.600;2023-05-14T05:37:41;7.00;;;4.83;;
1360;SDS011;674;45.552;-122.600;2023-05-14T05:40:11;5.87;;;4.07;;
1360;SDS011;674;45.552;-122.600;2023-05-14T05:42:40;9.50;;;5.17;;
1360;SDS011;674;45.552;-122.600;2023-05-14T05:45:09;9.60;;;4.47;;
1360;SDS011;674;45.552;-122.600;2023-05-14T05:47:37;5.83;;;4.07;;
1360;SDS011;674;45.552;-122.600;2023-05-14T05:50:06;6.87;;;5.07;;
1360;SDS011;674;45.552;-122.600;2023-05-14T05:52:35;5.80;;;4.00;;
1360;SDS011;674;45.552;-122.600;2023-05-14T05:55:04;6.33;;;4.30;;
1360;SDS011;674;45.552;-122.600;2023-05-14T05:57:33;4.00;;;3.27;;
1360;SDS011;674;45.552;-122.600;2023-05-14T06:00:01;7.63;;;4.20;;
1360;SDS011;674;45.552;-122.600;2023-05-14T06:02:39;9.27;;;4.07;;
1360;SDS011;674;45.552;-122.600;2023-05-14T06:05:08;7.23;;;3.37;;
1360;SDS011;674;45.552;-122.600;2023-05-14T06:07:37;6.10;;;2.97;;
1360;SDS011;674;45.552;-122.600;2023-05-14T06:10:06;6.10;;;3.63;;
1360;SDS011;674;45.552;-122.600;2023-05-14T06:12:35;5.73;;;3.10;;
1360;SDS011;674;45.552;-122.600;2023-05-14T06:15:03;4.27;;;2.80;;
1360;SDS011;674;45.552;-122.600;2023-05-14T06:17:32;4.93;;;2.63;;
1360;SDS011;674;45.552;-122.600;2023-05-14T06:20:00;5.50;;;2.90;;
1360;SDS011;674;45.552;-122.600;2023-05-14T06:22:28;4.90;;;2.90;;
1360;SDS011;674;45.552;-122.600;2023-05-14T06:24:57;6.50;;;2.90;;
1360;SDS011;674;45.552;-122.600;2023-05-14T06:27:25;6.87;;;3.07;;
1360;SDS011;674;45.552;-122.600;2023-05-14T06:29:54;5.47;;;3.10;;
1360;SDS011;674;45.552;-122.600;2023-05-14T06:32:22;4.60;;;2.60;;
1360;SDS011;674;45.552;-122.600;2023-05-14T06:34:50;8.23;;;2.87;;
1360;SDS011;674;45.552;-122.600;2023-05-14T06:37:19;7.63;;;3.33;;
1360;SDS011;674;45.552;-122.600;2023-05-14T06:39:47;6.10;;;3.57;;
1360;SDS011;674;45.552;-122.600;2023-05-14T06:42:20;6.23;;;3.60;;
1360;SDS011;674;45.552;-122.600;2023-05-14T06:44:48;8.40;;;4.80;;
1360;SDS011;674;45.552;-122.600;2023-05-14T06:47:16;11.30;;;4.33;;
1360;SDS011;674;45.552;-122.600;2023-05-14T06:49:45;5.90;;;4.17;;
1360;SDS011;674;45.552;-122.600;2023-05-14T06:52:13;9.27;;;5.47;;
1360;SDS011;674;45.552;-122.600;2023-05-14T06:54:41;7.37;;;5.33;;
1360;SDS011;674;45.552;-122.600;2023-05-14T06:57:10;6.73;;;4.20;;
1360;SDS011;674;45.552;-122.600;2023-05-14T06:59:38;6.43;;;3.50;;
1360;SDS011;674;45.552;-122.600;2023-05-14T07:02:07;4.67;;;4.10;;
1360;SDS011;674;45.552;-122.600;2023-05-14T07:04:35;9.03;;;3.77;;
1360;SDS011;674;45.552;-122.600;2023-05-14T07:07:04;5.83;;;3.83;;
1360;SDS011;674;45.552;-122.600;2023-05-14T07:09:32;9.73;;;4.00;;
1360;SDS011;674;45.552;-122.600;2023-05-14T07:12:00;6.27;;;3.70;;
1360;SDS011;674;45.552;-122.600;2023-05-14T07:14:29;4.90;;;3.37;;
1360;SDS011;674;45.552;-122.600;2023-05-14T07:16:57;5.10;;;3.70;;
1360;SDS011;674;45.552;-122.600;2023-05-14T07:19:25;6.17;;;4.10;;
1360;SDS011;674;45.552;-122.600;2023-05-14T07:21:56;6.90;;;3.00;;
1360;SDS011;674;45.552;-122.600;2023-05-14T07:24:24;5.20;;;3.87;;
1360;SDS011;674;45.552;-122.600;2023-05-14T07:26:53;8.00;;;3.20;;
1360;SDS011;674;45.552;-122.600;2023-05-14T07:29:23;6.33;;;3.70;;
1360;SDS011;674;45.552;-122.600;2023-05-14T07:31:51;8.23;;;3.60;;
1360;SDS011;674;45.552;-122.600;2023-05-14T07:34:20;5.03;;;3.50;;
1360;SDS011;674;45.552;-122.600;2023-05-14T07:36:48;5.47;;;3.27;;
1360;SDS011;674;45.552;-122.600;2023-05-14T07:39:16;6.70;;;3.47;;
1360;SDS011;674;45.552;-122.600;2023-05-14T07:41:45;6.53;;;3.40;;
1360;SDS011;674;45.552;-122.600;2023-05-14T07:44:13;5.60;;;3.23;;
1360;SDS011;674;45.552;-122.600;2023-05-14T07:46:41;4.77;;;3.17;;
1360;SDS011;674;45.552;-122.600;2023-05-14T07:49:10;8.37;;;3.70;;
1360;SDS011;674;45.552;-122.600;2023-05-14T07:51:38;5.20;;;3.50;;
1360;SDS011;674;45.552;-122.600;2023-05-14T07:54:06;10.63;;;3.83;;
1360;SDS011;674;45.552;-122.600;2023-05-14T07:56:35;5.93;;;3.30;;
1360;SDS011;674;45.552;-122.600;2023-05-14T07:59:03;6.57;;;3.53;;
1360;SDS011;674;45.552;-122.600;2023-05-14T08:01:33;5.87;;;3.60;;
1360;SDS011;674;45.552;-122.600;2023-05-14T08:04:04;6.80;;;3.53;;
1360;SDS011;674;45.552;-122.600;2023-05-14T08:06:33;6.67;;;3.70;;
1360;SDS011;674;45.552;-122.600;2023-05-14T08:09:01;6.97;;;3.03;;
1360;SDS011;674;45.552;-122.600;2023-05-14T08:11:31;5.97;;;3.30;;
1360;SDS011;674;45.552;-122.600;2023-05-14T08:13:59;9.50;;;3.50;;
1360;SDS011;674;45.552;-122.600;2023-05-14T08:16:28;8.60;;;3.33;;
1360;SDS011;674;45.552;-122.600;2023-05-14T08:18:56;6.03;;;3.73;;
1360;SDS011;674;45.552;-122.600;2023-05-14T08:21:25;5.13;;;3.23;;
1360;SDS011;674;45.552;-122.600;2023-05-14T08:23:54;7.67;;;3.97;;
1360;SDS011;674;45.552;-122.600;2023-05-14T08:26:22;5.27;;;3.43;;
1360;SDS011;674;45.552;-122.600;2023-05-14T08:28:51;7.10;;;3.63;;
1360;SDS011;674;45.552;-122.600;2023-05-14T08:31:21;6.10;;;3.30;;
1360;SDS011;674;45.552;-122.600;2023-05-14T08:33:49;6.03;;;3.50;;
1360;SDS011;674;45.552;-122.600;2023-05-14T08:36:17;5.17;;;3.50;;
1360;SDS011;674;45.552;-122.600;2023-05-14T08:38:46;7.73;;;3.40;;
1360;SDS011;674;45.552;-122.600;2023-05-14T08:41:16;6.60;;;3.37;;
1360;SDS011;674;45.552;-122.600;2023-05-14T08:46:32;6.20;;;3.83;;
1360;SDS011;674;45.552;-122.600;2023-05-14T08:51:43;7.43;;;3.80;;
1360;SDS011;674;45.552;-122.600;2023-05-14T08:54:16;8.00;;;3.70;;
1360;SDS011;674;45.552;-122.600;2023-05-14T08:56:45;8.27;;;4.10;;
1360;SDS011;674;45.552;-122.600;2023-05-14T08:59:17;5.17;;;3.60;;
1360;SDS011;674;45.552;-122.600;2023-05-14T09:01:46;4.43;;;3.30;;
1360;SDS011;674;45.552;-122.600;2023-05-14T09:04:15;4.30;;;3.70;;
1360;SDS011;674;45.552;-122.600;2023-05-14T09:06:51;6.60;;;3.80;;
1360;SDS011;674;45.552;-122.600;2023-05-14T09:09:21;4.80;;;3.17;;
1360;SDS011;674;45.552;-122.600;2023-05-14T09:11:50;6.23;;;3.63;;
1360;SDS011;674;45.552;-122.600;2023-05-14T09:14:19;6.43;;;3.40;;
1360;SDS011;674;45.552;-122.600;2023-05-14T09:16:49;5.00;;;3.60;;
1360;SDS011;674;45.552;-122.600;2023-05-14T09:19:18;9.13;;;4.10;;
1360;SDS011;674;45.552;-122.600;2023-05-14T09:21:48;5.10;;;3.60;;
1360;SDS011;674;45.552;-122.600;2023-05-14T09:24:20;6.17;;;4.30;;
1360;SDS011;674;45.552;-122.600;2023-05-14T09:26:51;10.73;;;3.90;;
1360;SDS011;674;45.552;-122.600;2023-05-14T09:29:22;5.13;;;3.73;;
1360;SDS011;674;45.552;-122.600;2023-05-14T09:31:52;9.00;;;4.07;;
1360;SDS011;674;45.552;-122.600;2023-05-14T09:34:29;9.83;;;4.20;;
1360;SDS011;674;45.552;-122.600;2023-05-14T09:36:59;6.20;;;3.90;;
1360;SDS011;674;45.552;-122.600;2023-05-14T09:39:32;6.33;;;3.70;;
1360;SDS011;674;45.552;-122.600;2023-05-14T09:42:02;6.07;;;4.10;;
1360;SDS011;674;45.552;-122.600;2023-05-14T09:44:31;4.40;;;3.37;;
1360;SDS011;674;45.552;-122.600;2023-05-14T09:46:59;5.30;;;3.10;;
1360;SDS011;674;45.552;-122.600;2023-05-14T09:49:28;4.87;;;3.17;;
1360;SDS011;674;45.552;-122.600;2023-05-14T09:51:56;6.10;;;3.80;;
1360;SDS011;674;45.552;-122.600;2023-05-14T09:54:25;4.93;;;3.77;;
1360;SDS011;674;45.552;-122.600;2023-05-14T09:56:53;5.63;;;3.40;;
1360;SDS011;674;45.552;-122.600;2023-05-14T09:59:22;4.50;;;3.20;;
1360;SDS011;674;45.552;-122.600;2023-05-14T10:01:50;4.50;;;3.23;;
1360;SDS011;674;45.552;-122.600;2023-05-14T10:04:19;7.97;;;3.90;;
1360;SDS011;674;45.552;-122.600;2023-05-14T10:06:49;10.30;;;3.53;;
1360;SDS011;674;45.552;-122.600;2023-05-14T10:09:19;5.40;;;3.47;;
1360;SDS011;674;45.552;-122.600;2023-05-14T10:11:52;10.00;;;3.97;;
1360;SDS011;674;45.552;-122.600;2023-05-14T10:14:32;5.17;;;3.47;;
1360;SDS011;674;45.552;-122.600;2023-05-14T10:17:07;5.87;;;3.47;;
1360;SDS011;674;45.552;-122.600;2023-05-14T10:19:46;7.87;;;3.43;;
1360;SDS011;674;45.552;-122.600;2023-05-14T10:22:23;5.53;;;2.93;;
1360;SDS011;674;45.552;-122.600;2023-05-14T10:25:01;5.73;;;3.00;;
1360;SDS011;674;45.552;-122.600;2023-05-14T10:27:30;5.63;;;3.50;;
1360;SDS011;674;45.552;-122.600;2023-05-14T10:29:59;4.57;;;3.10;;
1360;SDS011;674;45.552;-122.600;2023-05-14T10:32:32;5.53;;;3.20;;
1360;SDS011;674;45.552;-122.600;2023-05-14T10:35:25;4.80;;;2.93;;
1360;SDS011;674;45.552;-122.600;2023-05-14T10:37:53;7.23;;;3.20;;
1360;SDS011;674;45.552;-122.600;2023-05-14T10:40:23;6.73;;;3.40;;
1360;SDS011;674;45.552;-122.600;2023-05-14T10:42:52;4.43;;;3.30;;
1360;SDS011;674;45.552;-122.600;2023-05-14T10:45:25;5.30;;;3.20;;
1360;SDS011;674;45.552;-122.600;2023-05-14T10:47:54;4.33;;;3.20;;
1360;SDS011;674;45.552;-122.600;2023-05-14T10:50:22;8.13;;;3.97;;
1360;SDS011;674;45.552;-122.600;2023-05-14T10:52:52;8.10;;;3.13;;
1360;SDS011;674;45.552;-122.600;2023-05-14T10:55:21;8.17;;;3.27;;
1360;SDS011;674;45.552;-122.600;2023-05-14T10:57:50;5.10;;;2.80;;
1360;SDS011;674;45.552;-122.600;2023-05-14T11:00:19;4.10;;;2.80;;
1360;SDS011;674;45.552;-122.600;2023-05-14T11:02:54;4.03;;;2.93;;
1360;SDS011;674;45.552;-122.600;2023-05-14T11:05:25;5.43;;;3.13;;
1360;SDS011;674;45.552;-122.600;2023-05-14T11:07:54;3.60;;;2.50;;
1360;SDS011;674;45.552;-122.600;2023-05-14T11:10:24;4.90;;;3.30;;
1360;SDS011;674;45.552;-122.600;2023-05-14T11:12:56;4.63;;;3.13;;
1360;SDS011;674;45.552;-122.600;2023-05-14T11:15:25;3.90;;;3.10;;
1360;SDS011;674;45.552;-122.600;2023-05-14T11:17:54;3.90;;;3.13;;
1360;SDS011;674;45.552;-122.600;2023-05-14T11:20:23;5.40;;;3.13;;
1360;SDS011;674;45.552;-122.600;2023-05-14T11:22:51;4.90;;;3.57;;
1360;SDS011;674;45.552;-122.600;2023-05-14T11:25:19;4.70;;;3.60;;
1360;SDS011;674;45.552;-122.600;2023-05-14T11:27:48;3.83;;;3.00;;
1360;SDS011;674;45.552;-122.600;2023-05-14T11:30:18;5.13;;;3.30;;
1360;SDS011;674;45.552;-122.600;2023-05-14T11:32:47;4.93;;;3.10;;
1360;SDS011;674;45.552;-122.600;2023-05-14T11:35:16;4.90;;;3.13;;
1360;SDS011;674;45.552;-122.600;2023-05-14T11:37:51;4.93;;;3.07;;
1360;SDS011;674;45.552;-122.600;2023-05-14T11:40:19;5.50;;;2.93;;
1360;SDS011;674;45.552;-122.600;2023-05-14T11:42:51;6.83;;;3.20;;
1360;SDS011;674;45.552;-122.600;2023-05-14T11:45:26;4.30;;;3.03;;
1360;SDS011;674;45.552;-122.600;2023-05-14T11:47:56;4.40;;;3.13;;
1360;SDS011;674;45.552;-122.600;2023-05-14T11:50:24;5.83;;;2.90;;
1360;SDS011;674;45.552;-122.600;2023-05-14T11:52:55;6.60;;;3.20;;
1360;SDS011;674;45.552;-122.600;2023-05-14T11:55:23;5.30;;;2.80;;
1360;SDS011;674;45.552;-122.600;2023-05-14T11:57:52;4.80;;;2.80;;
1360;SDS011;674;45.552;-122.600;2023-05-14T12:00:21;5.93;;;3.30;;
1360;SDS011;674;45.552;-122.600;2023-05-14T12:02:51;5.30;;;3.33;;
1360;SDS011;674;45.552;-122.600;2023-05-14T12:05:19;7.50;;;3.40;;
1360;SDS011;674;45.552;-122.600;2023-05-14T12:07:48;4.23;;;2.87;;
1360;SDS011;674;45.552;-122.600;2023-05-14T12:10:16;5.60;;;3.70;;
1360;SDS011;674;45.552;-122.600;2023-05-14T12:12:46;5.63;;;4.03;;
1360;SDS011;674;45.552;-122.600;2023-05-14T12:15:15;8.77;;;4.43;;
1360;SDS011;674;45.552;-122.600;2023-05-14T12:17:49;5.27;;;3.83;;
1360;SDS011;674;45.552;-122.600;2023-05-14T12:20:18;5.80;;;4.43;;
1360;SDS011;674;45.552;-122.600;2023-05-14T12:22:47;5.40;;;4.90;;
1360;SDS011;674;45.552;-122.600;2023-05-14T12:25:15;5.97;;;5.10;;
1360;SDS011;674;45.552;-122.600;2023-05-14T12:27:43;5.17;;;4.30;;
1360;SDS011;674;45.552;-122.600;2023-05-14T12:30:12;8.40;;;5.23;;
1360;SDS011;674;45.552;-122.600;2023-05-14T12:32:44;6.47;;;5.20;;
1360;SDS011;674;45.552;-122.600;2023-05-14T12:35:12;7.40;;;4.03;;
1360;SDS011;674;45.552;-122.600;2023-05-14T12:37:40;7.97;;;4.30;;
1360;SDS011;674;45.552;-122.600;2023-05-14T12:40:09;6.40;;;3.70;;
1360;SDS011;674;45.552;-122.600;2023-05-14T12:42:38;4.50;;;3.37;;
1360;SDS011;674;45.552;-122.600;2023-05-14T12:45:06;5.27;;;4.30;;
1360;SDS011;674;45.552;-122.600;2023-05-14T12:47:35;6.03;;;4.67;;
1360;SDS011;674;45.552;-122.600;2023-05-14T12:50:03;7.00;;;4.10;;
1360;SDS011;674;45.552;-122.600;2023-05-14T12:52:32;5.67;;;3.67;;
1360;SDS011;674;45.552;-122.600;2023-05-14T12:55:06;3.80;;;3.03;;
1360;SDS011;674;45.552;-122.600;2023-05-14T12:57:35;5.40;;;3.40;;
1360;SDS011;674;45.552;-122.600;2023-05-14T13:00:07;8.00;;;3.57;;
1360;SDS011;674;45.552;-122.600;2023-05-14T13:02:40;4.77;;;3.07;;
1360;SDS011;674;45.552;-122.600;2023-05-14T13:05:10;4.63;;;3.03;;
1360;SDS011;674;45.552;-122.600;2023-05-14T13:07:38;6.43;;;3.60;;
1360;SDS011;674;45.552;-122.600;2023-05-14T13:10:07;4.40;;;3.00;;
1360;SDS011;674;45.552;-122.600;2023-05-14T13:12:36;4.80;;;3.30;;
1360;SDS011;674;45.552;-122.600;2023-05-14T13:15:05;5.33;;;3.30;;
1360;SDS011;674;45.552;-122.600;2023-05-14T13:17:34;5.00;;;4.10;;
1360;SDS011;674;45.552;-122.600;2023-05-14T13:20:03;4.43;;;4.00;;
1360;SDS011;674;45.552;-122.600;2023-05-14T13:22:32;6.87;;;4.93;;
1360;SDS011;674;45.552;-122.600;2023-05-14T13:25:01;6.87;;;5.23;;
1360;SDS011;674;45.552;-122.600;2023-05-14T13:27:30;7.43;;;4.63;;
1360;SDS011;674;45.552;-122.600;2023-05-14T13:29:59;8.33;;;4.70;;
1360;SDS011;674;45.552;-122.600;2023-05-14T13:32:28;6.00;;;4.07;;
1360;SDS011;674;45.552;-122.600;2023-05-14T13:34:57;9.80;;;4.63;;
1360;SDS011;674;45.552;-122.600;2023-05-14T13:37:25;5.50;;;3.47;;
1360;SDS011;674;45.552;-122.600;2023-05-14T13:39:53;6.90;;;4.20;;
1360;SDS011;674;45.552;-122.600;2023-05-14T13:42:21;3.93;;;3.53;;
1360;SDS011;674;45.552;-122.600;2023-05-14T13:44:50;7.33;;;5.07;;
1360;SDS011;674;45.552;-122.600;2023-05-14T13:47:18;4.67;;;3.63;;
1360;SDS011;674;45.552;-122.600;2023-05-14T13:49:47;4.73;;;3.00;;
1360;SDS011;674;45.552;-122.600;2023-05-14T13:52:15;6.13;;;4.10;;
1360;SDS011;674;45.552;-122.600;2023-05-14T13:54:43;7.37;;;4.87;;
1360;SDS011;674;45.552;-122.600;2023-05-14T13:57:12;6.10;;;4.70;;
1360;SDS011;674;45.552;-122.600;2023-05-14T13:59:41;4.60;;;3.43;;
1360;SDS011;674;45.552;-122.600;2023-05-14T14:02:09;5.13;;;4.63;;
1360;SDS011;674;45.552;-122.600;2023-05-14T14:04:38;4.10;;;3.70;;
1360;SDS011;674;45.552;-122.600;2023-05-14T14:07:06;4.87;;;3.93;;
1360;SDS011;674;45.552;-122.600;2023-05-14T14:09:35;4.70;;;2.50;;
1360;SDS011;674;45.552;-122.600;2023-05-14T14:12:03;5.57;;;2.60;;
1360;SDS011;674;45.552;-122.600;2023-05-14T14:14:32;6.83;;;2.80;;
1360;SDS011;674;45.552;-122.600;2023-05-14T14:17:01;4.43;;;2.70;;
1360;SDS011;674;45.552;-122.600;2023-05-14T14:19:29;5.83;;;2.07;;
1360;SDS011;674;45.552;-122.600;2023-05-14T14:21:58;3.00;;;1.80;;
1360;SDS011;674;45.552;-122.600;2023-05-14T14:24:26;8.70;;;1.77;;
1360;SDS011;674;45.552;-122.600;2023-05-14T14:26:54;2.63;;;1.60;;
1360;SDS011;674;45.552;-122.600;2023-05-14T14:29:23;3.30;;;1.60;;
1360;SDS011;674;45.552;-122.600;2023-05-14T14:31:51;6.93;;;1.50;;
1360;SDS011;674;45.552;-122.600;2023-05-14T14:34:20;5.30;;;2.13;;
1360;SDS011;674;45.552;-122.600;2023-05-14T14:36:48;4.50;;;2.00;;
1360;SDS011;674;45.552;-122.600;2023-05-14T14:39:17;2.50;;;1.40;;
1360;SDS011;674;45.552;-122.600;2023-05-14T14:41:45;2.90;;;1.70;;
1360;SDS011;674;45.552;-122.600;2023-05-14T14:44:13;4.87;;;1.53;;
1360;SDS011;674;45.552;-122.600;2023-05-14T14:46:42;3.60;;;1.80;;
1360;SDS011;674;45.552;-122.600;2023-05-14T14:49:10;4.63;;;1.60;;
1360;SDS011;674;45.552;-122.600;2023-05-14T14:51:38;3.40;;;1.83;;
1360;SDS011;674;45.552;-122.600;2023-05-14T14:54:07;3.30;;;1.50;;
1360;SDS011;674;45.552;-122.600;2023-05-14T14:56:35;4.43;;;1.73;;
1360;SDS011;674;45.552;-122.600;2023-05-14T14:59:04;3.70;;;1.67;;
1360;SDS011;674;45.552;-122.600;2023-05-14T15:01:32;5.67;;;2.30;;
1360;SDS011;674;45.552;-122.600;2023-05-14T15:04:00;2.40;;;1.53;;
1360;SDS011;674;45.552;-122.600;2023-05-14T15:06:29;2.73;;;1.60;;
1360;SDS011;674;45.552;-122.600;2023-05-14T15:08:57;4.50;;;1.50;;
1360;SDS011;674;45.552;-122.600;2023-05-14T15:11:26;2.80;;;1.47;;
1360;SDS011;674;45.552;-122.600;2023-05-14T15:13:55;4.30;;;1.90;;